Terminal Aerodrome Forecast
Issued by NWS Corpus Christi, TX

Home | Current Version | Previous Version | Text Only | Print | Product List | Glossary On
Versions: 1 2 3 4 5 6 7 8 9 10 11 12 13
965
FTUS44 KCRP 170527
TAFVCT
TAF
KVCT 170527Z 1706/1806 34006KT P6SM OVC015
     FM170800 34004KT 4SM BR OVC006
     FM171000 34004KT 1SM BR OVC003
     FM171500 04004KT 3SM BR OVC008
     FM171800 14006KT P6SM OVC015
     FM180300 12004KT 5SM BR OVC008=

USA.gov is the U.S. government's official web portal to all federal, state and local government web resources and services.